Merlo, Argentina
Current Conditions -  °F | °C
As of 9:00 PM on Thursday 18 Dec 2014 (Local Time) from SAEZ Reporting Station
Clear Clear  
Wind Chill: 29°   Ceiling: Unl
Heat Index: 29°   Visibility: 6mi
Dew Point: 13°   Wind: 8mph
Humidity: 37%   Direction: 350°N
Pressure: 29.74"   Gusts: 20mph
Location:  34.67°S, 58.75°W
Report Text: SAEZ 190000Z 35007G17KT 320V020 CAVOK 29/13 Q1007
Loading
Personal Weather Stations






























Interactive Weather Map New forecast layout! Learn more

10-Day Weather Forecast

Advertisements
Track Severe Weather on mobile